Time,TemperatureF,DewpointF,PressureIn,WindDirection,WindDirectionDegrees,WindSpeedMPH,WindSpeedGustMPH,Humidity,HourlyPrecipIn,Conditions,Clouds,dailyrainin,SoftwareType,DateUTC
2013-06-23 00:19:00,66.4,56.7,30.15,NW,315,0.0,0.0,71,0.00,,CLR,0.00,VWS V14.01,2013-06-23 04:19:00,
2013-06-23 06:03:00,66.6,63.9,30.15,NW,315,0.0,0.0,91,0.00,,CLR,0.00,VWS V14.01,2013-06-23 10:03:00,
2013-06-23 07:14:00,70.3,65.3,30.15,West,270,0.0,0.0,84,0.00,,CLR,0.00,VWS V14.01,2013-06-23 11:14:00,
2013-06-23 07:28:00,70.5,65.1,30.15,WNW,292,0.0,0.0,83,0.00,,CLR,0.00,VWS V14.01,2013-06-23 11:28:00,
2013-06-23 07:54:00,74.3,66.2,30.15,WSW,248,1.8,4.0,76,0.00,,CLR,0.00,VWS V14.01,2013-06-23 11:54:00,
2013-06-23 08:46:00,77.5,66.6,30.18,WSW,248,0.0,0.0,69,0.00,,CLR,0.00,VWS V14.01,2013-06-23 12:46:00,
2013-06-23 09:56:00,84.9,65.9,30.15,South,180,0.0,4.9,53,0.00,,CLR,0.00,VWS V14.01,2013-06-23 13:56:00,
2013-06-23 10:38:00,89.2,65.8,30.12,SW,225,2.2,5.8,46,0.00,,CLR,0.00,VWS V14.01,2013-06-23 14:38:00,
2013-06-23 13:12:00,97.2,63.3,30.12,NW,315,0.0,2.2,33,0.00,,CLR,0.00,VWS V14.01,2013-06-23 17:12:00,
2013-06-23 13:17:00,97.9,64.8,30.12,SW,225,6.3,6.3,34,0.00,,CLR,0.00,VWS V14.01,2013-06-23 17:17:00,
2013-06-23 13:22:00,96.4,60.9,30.12,NW,315,6.3,6.7,31,0.00,,CLR,0.00,VWS V14.01,2013-06-23 17:22:00,
2013-06-23 13:27:00,96.4,61.8,30.12,SE,135,0.0,3.1,32,0.00,,CLR,0.00,VWS V14.01,2013-06-23 17:27:00,
2013-06-23 13:33:00,96.4,61.8,30.09,North,0,2.7,2.7,32,0.00,,CLR,0.00,VWS V14.01,2013-06-23 17:33:00,
2013-06-23 13:38:00,96.6,62.0,30.09,NNE,22,0.0,0.0,32,0.00,,CLR,0.00,VWS V14.01,2013-06-23 17:38:00,
2013-06-23 13:43:00,97.9,63.0,30.09,NW,315,4.5,4.5,32,0.00,,CLR,0.00,VWS V14.01,2013-06-23 17:43:00,
2013-06-23 13:48:00,97.5,61.8,30.09,SW,225,1.8,8.1,31,0.00,,CLR,0.00,VWS V14.01,2013-06-23 17:48:00,
2013-06-23 13:53:00,96.3,59.8,30.09,SW,225,2.2,11.2,30,0.00,,CLR,0.00,VWS V14.01,2013-06-23 17:53:00,
2013-06-23 13:58:00,97.5,61.8,30.09,NW,315,0.0,5.4,31,0.00,,CLR,0.00,VWS V14.01,2013-06-23 17:58:00,
2013-06-23 14:03:00,99.0,62.1,30.09,South,180,6.3,8.1,30,0.00,,CLR,0.00,VWS V14.01,2013-06-23 18:03:00,
2013-06-23 14:08:00,99.3,62.4,30.09,West,270,8.1,8.1,30,0.00,,CLR,0.00,VWS V14.01,2013-06-23 18:08:00,
2013-06-23 14:13:00,99.1,60.3,30.09,SSW,202,2.2,4.5,28,0.00,,CLR,0.00,VWS V14.01,2013-06-23 18:13:00,
2013-06-23 14:18:00,99.1,61.3,30.09,East,90,0.0,0.0,29,0.00,,CLR,0.00,VWS V14.01,2013-06-23 18:18:00,
2013-06-23 14:23:00,99.9,62.0,30.09,SSW,202,0.0,0.0,29,0.00,,CLR,0.00,VWS V14.01,2013-06-23 18:23:00,
2013-06-23 14:28:00,100.0,60.1,30.09,East,90,1.8,3.1,27,0.00,,CLR,0.00,VWS V14.01,2013-06-23 18:28:00,
2013-06-23 14:33:00,99.5,59.6,30.09,South,180,3.1,3.1,27,0.00,,CLR,0.00,VWS V14.01,2013-06-23 18:33:00,
2013-06-23 14:38:00,98.8,58.0,30.09,East,90,2.2,8.1,26,0.00,,CLR,0.00,VWS V14.01,2013-06-23 18:38:00,
2013-06-23 14:43:00,99.0,58.1,30.09,SW,225,2.2,2.2,26,0.00,,CLR,0.00,VWS V14.01,2013-06-23 18:43:00,
2013-06-23 14:48:00,99.0,58.1,30.06,SW,225,5.4,5.8,26,0.00,,CLR,0.00,VWS V14.01,2013-06-23 18:48:00,
2013-06-23 14:53:00,100.0,59.0,30.06,NW,315,9.8,9.8,26,0.00,,CLR,0.00,VWS V14.01,2013-06-23 18:53:00,
2013-06-23 14:58:00,100.6,59.5,30.06,WNW,292,0.0,0.0,26,0.00,,CLR,0.00,VWS V14.01,2013-06-23 18:58:00,
2013-06-23 15:03:00,100.0,60.1,30.06,NW,315,0.0,0.0,27,0.00,,CLR,0.00,VWS V14.01,2013-06-23 19:03:00,
2013-06-23 15:08:00,99.5,59.6,30.06,SE,135,4.0,4.9,27,0.00,,CLR,0.00,VWS V14.01,2013-06-23 19:08:00,
2013-06-23 15:13:00,99.5,59.6,30.06,North,0,2.7,4.0,27,0.00,,CLR,0.00,VWS V14.01,2013-06-23 19:13:00,
2013-06-23 15:18:00,99.0,60.2,30.06,ESE,112,2.2,5.4,28,0.00,,CLR,0.00,VWS V14.01,2013-06-23 19:18:00,
2013-06-23 15:23:00,99.9,61.0,30.06,SE,135,2.7,5.4,28,0.00,,CLR,0.00,VWS V14.01,2013-06-23 19:23:00,
2013-06-23 15:29:00,100.2,61.3,30.06,WSW,248,0.0,0.0,28,0.00,,CLR,0.00,VWS V14.01,2013-06-23 19:29:00,
2013-06-23 15:34:00,100.0,60.1,30.03,West,270,2.2,4.5,27,0.00,,CLR,0.00,VWS V14.01,2013-06-23 19:34:00,
2013-06-23 15:39:00,101.3,60.1,30.03,North,0,7.6,7.6,26,0.00,,CLR,0.00,VWS V14.01,2013-06-23 19:39:00,
2013-06-23 15:44:00,100.0,59.0,30.03,SW,225,0.0,0.0,26,0.00,,CLR,0.00,VWS V14.01,2013-06-23 19:44:00,
2013-06-23 15:49:00,99.9,58.9,30.03,ESE,112,4.0,5.4,26,0.00,,CLR,0.00,VWS V14.01,2013-06-23 19:49:00,
2013-06-23 15:54:00,99.7,59.8,30.03,NE,45,0.0,9.4,27,0.00,,CLR,0.00,VWS V14.01,2013-06-23 19:54:00,
2013-06-23 15:59:00,99.7,59.8,30.03,NW,315,0.0,3.1,27,0.00,,CLR,0.00,VWS V14.01,2013-06-23 19:59:00,
2013-06-23 16:04:00,100.0,61.1,30.03,SSE,158,0.0,0.0,28,0.00,,CLR,0.00,VWS V14.01,2013-06-23 20:04:00,
2013-06-23 16:09:00,99.3,60.5,30.03,East,90,2.7,4.9,28,0.00,,CLR,0.00,VWS V14.01,2013-06-23 20:09:00,
2013-06-23 16:14:00,98.6,59.9,30.03,SW,225,4.0,4.0,28,0.00,,CLR,0.00,VWS V14.01,2013-06-23 20:14:00,
2013-06-23 16:19:00,98.6,59.9,30.03,WSW,248,2.2,2.2,28,0.00,,CLR,0.00,VWS V14.01,2013-06-23 20:19:00,
2013-06-23 16:24:00,98.4,60.7,30.03,WSW,248,4.0,4.0,29,0.00,,CLR,0.00,VWS V14.01,2013-06-23 20:24:00,
2013-06-23 16:29:00,98.2,61.5,30.03,South,180,5.4,7.2,30,0.00,,CLR,0.00,VWS V14.01,2013-06-23 20:29:00,
2013-06-23 16:34:00,96.8,60.3,30.03,NW,315,0.0,0.0,30,0.00,,CLR,0.00,VWS V14.01,2013-06-23 20:34:00,
2013-06-23 16:39:00,97.0,60.4,30.03,ESE,112,2.2,5.4,30,0.00,,CLR,0.00,VWS V14.01,2013-06-23 20:39:00,
2013-06-23 16:44:00,95.4,60.9,30.03,East,90,6.3,6.3,32,0.00,,CLR,0.00,VWS V14.01,2013-06-23 20:44:00,
2013-06-23 16:49:00,95.5,61.9,30.00,SSW,202,2.2,3.1,33,0.00,,CLR,0.00,VWS V14.01,2013-06-23 20:49:00,
2013-06-23 16:54:00,94.8,61.3,30.00,SW,225,4.0,4.0,33,0.00,,CLR,0.00,VWS V14.01,2013-06-23 20:54:00,
2013-06-23 16:59:00,94.8,61.3,30.00,SSW,202,0.0,4.0,33,0.00,,CLR,0.00,VWS V14.01,2013-06-23 20:59:00,
2013-06-23 17:04:00,95.4,60.0,30.03,WNW,292,5.8,8.5,31,0.00,,CLR,0.00,VWS V14.01,2013-06-23 21:04:00,
2013-06-23 17:09:00,95.4,60.9,30.03,SW,225,3.1,4.9,32,0.00,,CLR,0.00,VWS V14.01,2013-06-23 21:09:00,
2013-06-23 17:15:00,94.8,61.3,30.03,North,0,0.0,2.2,33,0.00,,CLR,0.00,VWS V14.01,2013-06-23 21:15:00,
2013-06-23 17:20:00,94.5,61.8,30.03,SW,225,0.0,0.0,34,0.00,,CLR,0.00,VWS V14.01,2013-06-23 21:20:00,
2013-06-23 17:25:00,93.9,61.3,30.03,SW,225,2.2,3.1,34,0.00,,CLR,0.00,VWS V14.01,2013-06-23 21:25:00,
2013-06-23 17:30:00,93.6,61.8,30.03,WSW,248,0.0,0.0,35,0.00,,CLR,0.00,VWS V14.01,2013-06-23 21:30:00,
2013-06-23 17:35:00,92.5,61.7,30.03,SW,225,0.0,0.0,36,0.00,,CLR,0.00,VWS V14.01,2013-06-23 21:35:00,
2013-06-23 17:40:00,91.9,62.0,30.03,SW,225,0.0,2.2,37,0.00,,CLR,0.00,VWS V14.01,2013-06-23 21:40:00,
2013-06-23 17:45:00,91.2,62.1,30.03,WSW,248,0.0,0.0,38,0.00,,CLR,0.00,VWS V14.01,2013-06-23 21:45:00,
2013-06-23 17:50:00,90.0,61.0,30.03,North,0,4.5,4.5,38,0.00,,CLR,0.00,VWS V14.01,2013-06-23 21:50:00,
2013-06-23 17:55:00,89.4,61.2,30.03,West,270,0.0,0.0,39,0.00,,CLR,0.00,VWS V14.01,2013-06-23 21:55:00,
2013-06-23 18:00:00,88.5,61.1,30.03,WNW,292,2.7,5.4,40,0.00,,CLR,0.00,VWS V14.01,2013-06-23 22:00:00,
2013-06-23 18:05:00,87.4,61.5,30.03,SW,225,6.3,6.3,42,0.00,,CLR,0.00,VWS V14.01,2013-06-23 22:05:00,
2013-06-23 18:10:00,87.1,61.9,30.03,NW,315,0.0,0.0,43,0.00,,CLR,0.00,VWS V14.01,2013-06-23 22:10:00,
2013-06-23 18:15:00,86.4,62.5,30.03,NW,315,0.0,0.0,45,0.00,,CLR,0.00,VWS V14.01,2013-06-23 22:15:00,
2013-06-23 18:20:00,85.8,62.7,30.03,NW,315,0.0,0.0,46,0.00,,CLR,0.00,VWS V14.01,2013-06-23 22:20:00,
2013-06-23 18:25:00,85.5,63.0,30.03,SE,135,0.0,2.2,47,0.00,,CLR,0.00,VWS V14.01,2013-06-23 22:25:00,
2013-06-23 18:30:00,85.1,64.4,30.03,North,0,0.0,0.0,50,0.00,,CLR,0.00,VWS V14.01,2013-06-23 22:30:00,
2013-06-23 18:35:00,84.7,64.1,30.03,SSW,202,0.0,0.0,50,0.00,,CLR,0.00,VWS V14.01,2013-06-23 22:35:00,
2013-06-23 18:40:00,84.4,63.7,30.03,NNW,338,0.0,1.8,50,0.00,,CLR,0.00,VWS V14.01,2013-06-23 22:40:00,
2013-06-23 18:45:00,84.2,64.1,30.03,NE,45,0.0,0.0,51,0.00,,CLR,0.00,VWS V14.01,2013-06-23 22:45:00,
2013-06-23 18:50:00,83.8,64.3,30.03,WSW,248,0.0,0.0,52,0.00,,CLR,0.00,VWS V14.01,2013-06-23 22:50:00,
2013-06-23 18:57:00,83.5,64.6,30.03,NW,315,0.0,0.0,53,0.00,,CLR,0.00,VWS V14.01,2013-06-23 22:57:00,
2013-06-23 19:02:00,83.1,64.8,30.03,SW,225,2.2,4.0,54,0.00,,CLR,0.00,VWS V14.01,2013-06-23 23:02:00,
2013-06-23 19:07:00,82.9,64.6,30.03,SW,225,0.0,0.0,54,0.00,,CLR,0.00,VWS V14.01,2013-06-23 23:07:00,
2013-06-23 19:12:00,82.6,64.3,30.03,NNW,338,0.0,0.0,54,0.00,,CLR,0.00,VWS V14.01,2013-06-23 23:12:00,
2013-06-23 19:17:00,82.4,64.6,30.03,SSW,202,0.0,0.0,55,0.00,,CLR,0.00,VWS V14.01,2013-06-23 23:17:00,
2013-06-23 19:23:00,82.0,64.8,30.03,North,0,0.0,0.0,56,0.00,,CLR,0.00,VWS V14.01,2013-06-23 23:23:00,
2013-06-23 19:28:00,81.9,65.2,30.03,NNW,338,0.0,0.0,57,0.00,,CLR,0.00,VWS V14.01,2013-06-23 23:28:00,
2013-06-23 19:33:00,81.7,65.0,30.03,NW,315,0.0,6.3,57,0.00,,CLR,0.00,VWS V14.01,2013-06-23 23:33:00,
2013-06-23 19:38:00,81.5,65.3,30.03,WSW,248,0.0,0.0,58,0.00,,CLR,0.00,VWS V14.01,2013-06-23 23:38:00,
2013-06-23 19:43:00,81.1,64.5,30.03,WSW,248,0.0,0.0,57,0.00,,CLR,0.00,VWS V14.01,2013-06-23 23:43:00,
2013-06-23 19:48:00,81.0,64.3,30.03,SSW,202,0.0,0.0,57,0.00,,CLR,0.00,VWS V14.01,2013-06-23 23:48:00,
2013-06-23 19:53:00,80.6,64.5,30.03,ESE,112,0.0,0.0,58,0.00,,CLR,0.00,VWS V14.01,2013-06-23 23:53:00,
2013-06-23 19:58:00,80.4,64.8,30.03,NNE,22,0.0,0.0,59,0.00,,CLR,0.00,VWS V14.01,2013-06-23 23:58:00,
2013-06-23 20:03:00,80.1,64.9,30.03,South,180,2.7,4.5,60,0.00,,CLR,0.00,VWS V14.01,2013-06-24 00:03:00,
2013-06-23 20:08:00,79.9,65.2,30.03,NW,315,2.2,2.2,61,0.00,,CLR,0.00,VWS V14.01,2013-06-24 00:08:00,
2013-06-23 20:13:00,79.7,65.5,30.03,NW,315,0.0,0.0,62,0.00,,CLR,0.00,VWS V14.01,2013-06-24 00:13:00,
2013-06-23 20:18:00,79.5,64.9,30.03,West,270,1.8,1.8,61,0.00,,CLR,0.00,VWS V14.01,2013-06-24 00:18:00,
2013-06-23 20:23:00,79.2,64.6,30.03,West,270,0.0,4.5,61,0.00,,CLR,0.00,VWS V14.01,2013-06-24 00:23:00,
2013-06-23 20:28:00,78.8,64.7,30.03,South,180,0.0,0.0,62,0.00,,CLR,0.00,VWS V14.01,2013-06-24 00:28:00,
2013-06-23 20:33:00,78.6,64.5,30.06,North,0,0.0,0.0,62,0.00,,CLR,0.00,VWS V14.01,2013-06-24 00:33:00,
2013-06-23 20:38:00,78.3,64.2,30.06,NW,315,0.0,0.0,62,0.00,,CLR,0.00,VWS V14.01,2013-06-24 00:38:00,
2013-06-23 20:43:00,77.9,63.8,30.06,NW,315,0.0,0.0,62,0.00,,CLR,0.00,VWS V14.01,2013-06-24 00:43:00,
2013-06-23 20:48:00,77.7,63.7,30.06,NW,315,0.0,0.0,62,0.00,,CLR,0.00,VWS V14.01,2013-06-24 00:48:00,
2013-06-23 20:53:00,77.5,63.5,30.06,NW,315,0.0,0.0,62,0.00,,CLR,0.00,VWS V14.01,2013-06-24 00:53:00,
2013-06-23 20:58:00,77.2,63.6,30.06,NW,315,0.0,0.0,63,0.00,,CLR,0.00,VWS V14.01,2013-06-24 00:58:00,
2013-06-23 21:03:00,77.0,63.9,30.06,WSW,248,0.0,0.0,64,0.00,,CLR,0.00,VWS V14.01,2013-06-24 01:03:00,
2013-06-23 21:08:00,76.8,64.6,30.06,NNW,338,0.0,0.0,66,0.00,,CLR,0.00,VWS V14.01,2013-06-24 01:08:00,
2013-06-23 21:13:00,76.6,64.4,30.06,WSW,248,2.2,4.0,66,0.00,,CLR,0.00,VWS V14.01,2013-06-24 01:13:00,
2013-06-23 21:19:00,76.3,64.5,30.03,NW,315,0.0,0.0,67,0.00,,CLR,0.00,VWS V14.01,2013-06-24 01:19:00,
2013-06-23 21:24:00,76.1,64.4,30.03,NW,315,0.0,0.0,67,0.00,,CLR,0.00,VWS V14.01,2013-06-24 01:24:00,
2013-06-23 21:29:00,76.1,65.2,30.03,SSW,202,0.0,6.7,69,0.00,,CLR,0.00,VWS V14.01,2013-06-24 01:29:00,
2013-06-23 21:34:00,76.1,65.2,30.03,NW,315,0.0,0.0,69,0.00,,CLR,0.00,VWS V14.01,2013-06-24 01:34:00,
2013-06-23 21:39:00,75.9,65.0,30.03,NW,315,0.0,0.0,69,0.00,,CLR,0.00,VWS V14.01,2013-06-24 01:39:00,
2013-06-23 21:44:00,75.7,64.9,30.03,SSW,202,0.0,0.0,69,0.00,,CLR,0.00,VWS V14.01,2013-06-24 01:44:00,
2013-06-23 21:49:00,75.6,65.1,30.03,SW,225,0.0,0.0,70,0.00,,CLR,0.00,VWS V14.01,2013-06-24 01:49:00,
2013-06-23 21:54:00,75.4,65.3,30.03,SW,225,2.7,2.7,71,0.00,,CLR,0.00,VWS V14.01,2013-06-24 01:54:00,
2013-06-23 21:59:00,75.4,65.7,30.03,SW,225,0.0,2.7,72,0.00,,CLR,0.00,VWS V14.01,2013-06-24 01:59:00,
2013-06-23 22:04:00,75.2,65.6,30.03,WSW,248,0.0,0.0,72,0.00,,CLR,0.00,VWS V14.01,2013-06-24 02:04:00,
2013-06-23 22:09:00,75.0,65.8,30.03,SSW,202,0.0,0.0,73,0.00,,CLR,0.00,VWS V14.01,2013-06-24 02:09:00,
2013-06-23 22:14:00,74.8,65.6,30.03,NW,315,0.0,0.0,73,0.00,,CLR,0.00,VWS V14.01,2013-06-24 02:14:00,
2013-06-23 22:19:00,74.8,65.6,30.03,NNW,338,0.0,0.0,73,0.00,,CLR,0.00,VWS V14.01,2013-06-24 02:19:00,
2013-06-23 22:24:00,74.8,66.0,30.03,WNW,292,0.0,0.0,74,0.00,,CLR,0.00,VWS V14.01,2013-06-24 02:24:00,
2013-06-23 22:30:00,74.7,65.8,30.03,WNW,292,0.0,0.0,74,0.00,,CLR,0.00,VWS V14.01,2013-06-24 02:30:00,
2013-06-23 22:35:00,74.3,65.9,30.03,NW,315,0.0,0.0,75,0.00,,CLR,0.00,VWS V14.01,2013-06-24 02:35:00,
2013-06-23 22:40:00,73.9,65.5,30.03,WSW,248,0.0,0.0,75,0.00,,CLR,0.00,VWS V14.01,2013-06-24 02:40:00,
2013-06-23 22:45:00,73.8,65.3,30.03,WSW,248,0.0,0.0,75,0.00,,CLR,0.00,VWS V14.01,2013-06-24 02:45:00,
2013-06-23 22:50:00,73.6,65.6,30.03,WSW,248,0.0,0.0,76,0.00,,CLR,0.00,VWS V14.01,2013-06-24 02:50:00,
2013-06-23 22:55:00,73.4,65.8,30.03,WSW,248,0.0,0.0,77,0.00,,CLR,0.00,VWS V14.01,2013-06-24 02:55:00,
2013-06-23 23:00:00,73.2,65.6,30.03,NNW,338,0.0,0.0,77,0.00,,CLR,0.00,VWS V14.01,2013-06-24 03:00:00,
2013-06-23 23:05:00,73.2,66.3,30.03,NW,315,0.0,0.0,79,0.00,,CLR,0.00,VWS V14.01,2013-06-24 03:05:00,
2013-06-23 23:11:00,73.2,66.7,30.03,NW,315,0.0,0.0,80,0.00,,CLR,0.00,VWS V14.01,2013-06-24 03:11:00,
2013-06-23 23:16:00,73.2,66.7,30.03,NW,315,0.0,0.0,80,0.00,,CLR,0.00,VWS V14.01,2013-06-24 03:16:00,
2013-06-23 23:21:00,73.2,66.7,30.03,NW,315,0.0,0.0,80,0.00,,CLR,0.00,VWS V14.01,2013-06-24 03:21:00,
2013-06-23 23:26:00,73.0,66.5,30.03,NW,315,0.0,0.0,80,0.00,,CLR,0.00,VWS V14.01,2013-06-24 03:26:00,
2013-06-23 23:31:00,73.0,66.9,30.03,NW,315,0.0,0.0,81,0.00,,CLR,0.00,VWS V14.01,2013-06-24 03:31:00,
2013-06-23 23:36:00,72.9,66.7,30.03,NW,315,0.0,0.0,81,0.00,,CLR,0.00,VWS V14.01,2013-06-24 03:36:00,
2013-06-23 23:41:00,72.9,66.7,30.03,NW,315,0.0,0.0,81,0.00,,CLR,0.00,VWS V14.01,2013-06-24 03:41:00,
2013-06-23 23:46:00,72.7,66.5,30.03,NW,315,0.0,0.0,81,0.00,,CLR,0.00,VWS V14.01,2013-06-24 03:46:00,
2013-06-23 23:51:00,72.7,66.5,30.03,NW,315,0.0,0.0,81,0.00,,CLR,0.00,VWS V14.01,2013-06-24 03:51:00,
2013-06-23 23:56:00,72.7,66.5,30.03,NW,315,0.0,0.0,81,0.00,,CLR,0.00,VWS V14.01,2013-06-24 03:56:00,